createdAt,value
2023-07-08T00:01:51.312Z,8.07
2023-07-08T00:06:55.393Z,8.90
2023-07-08T00:11:58.345Z,7.18
2023-07-08T00:17:01.170Z,5.63
2023-07-08T00:22:13.967Z,8.15
2023-07-08T00:27:16.747Z,6.70
2023-07-08T00:32:19.531Z,7.55
2023-07-08T00:37:23.541Z,4.97
2023-07-08T00:42:26.882Z,6.82
2023-07-08T00:47:29.674Z,7.60
2023-07-08T00:52:33.710Z,5.05
2023-07-08T00:57:40.172Z,6.25
2023-07-08T01:02:47.587Z,6.75
2023-07-08T01:07:56.062Z,6.40
2023-07-08T01:13:03.823Z,5.82
2023-07-08T01:18:08.149Z,6.30
2023-07-08T01:23:13.337Z,6.65
2023-07-08T01:28:16.760Z,6.13
2023-07-08T01:33:22.982Z,5.72
2023-07-08T01:38:29.895Z,6.63
2023-07-08T01:43:32.683Z,5.53
2023-07-08T01:48:39.713Z,5.53
2023-07-08T01:53:44.988Z,8.18
2023-07-08T01:58:47.738Z,5.45
2023-07-08T02:03:50.428Z,9.32
2023-07-08T02:08:56.014Z,7.50
2023-07-08T02:13:58.802Z,7.05
2023-07-08T02:19:01.509Z,5.05
2023-07-08T02:24:06.134Z,6.75
2023-07-08T02:29:08.936Z,8.10
2023-07-08T02:34:11.803Z,6.35
2023-07-08T02:39:15.814Z,5.90
2023-07-08T02:44:18.532Z,7.70
2023-07-08T02:49:21.279Z,5.97
2023-07-08T02:54:25.446Z,5.95
2023-07-08T02:59:29.415Z,6.85
2023-07-08T03:04:32.182Z,6.38
2023-07-08T03:09:36.433Z,7.35
2023-07-08T03:14:39.515Z,8.23
2023-07-08T03:19:42.666Z,9.35
2023-07-08T03:24:47.410Z,5.60
2023-07-08T03:29:50.238Z,5.43
2023-07-08T03:34:53.078Z,6.22
2023-07-08T03:39:57.137Z,6.00
2023-07-08T03:44:59.806Z,5.57
2023-07-08T03:50:02.548Z,7.93
2023-07-08T03:55:07.625Z,7.05
2023-07-08T04:00:13.107Z,7.88
2023-07-08T04:05:16.913Z,6.45
2023-07-08T04:10:20.987Z,5.80
2023-07-08T04:15:26.474Z,6.05
2023-07-08T04:20:29.177Z,5.40
2023-07-08T04:25:33.251Z,7.10
2023-07-08T04:30:41.931Z,7.82
2023-07-08T04:35:46.186Z,8.77
2023-07-08T04:40:51.971Z,7.10
2023-07-08T04:45:55.851Z,6.45
2023-07-08T04:50:58.964Z,5.97
2023-07-08T04:56:03.379Z,5.30
2023-07-08T05:01:06.042Z,4.90
2023-07-08T05:06:08.740Z,6.88
2023-07-08T05:11:12.766Z,4.20
2023-07-08T05:16:15.558Z,6.00
2023-07-08T05:21:20.339Z,5.28
2023-07-08T05:26:24.447Z,7.28
2023-07-08T05:31:41.825Z,4.32
2023-07-08T05:36:49.772Z,4.95
2023-07-08T05:41:53.814Z,9.13
2023-07-08T05:46:56.592Z,6.65
2023-07-08T05:51:59.408Z,3.58
2023-07-08T05:57:03.407Z,5.10
2023-07-08T06:02:07.751Z,6.22
2023-07-08T06:07:11.054Z,4.88
2023-07-08T06:12:15.087Z,7.93
2023-07-08T06:17:18.551Z,5.05
2023-07-08T06:22:45.460Z,4.25
2023-07-08T06:27:45.349Z,5.25
2023-07-08T06:32:48.402Z,7.07
2023-07-08T06:38:00.281Z,5.93
2023-07-08T06:43:11.696Z,4.55
2023-07-08T06:48:14.829Z,5.93
2023-07-08T06:53:17.886Z,6.07
2023-07-08T06:58:21.998Z,8.15
2023-07-08T07:03:26.950Z,7.43
2023-07-08T07:08:29.770Z,6.35
2023-07-08T07:13:34.041Z,5.50
2023-07-08T07:18:36.969Z,6.95
2023-07-08T07:23:39.774Z,4.28
2023-07-08T07:28:43.755Z,5.80
2023-07-08T07:33:46.473Z,3.78
2023-07-08T07:38:49.175Z,8.52
2023-07-08T07:43:53.171Z,4.15
2023-07-08T07:48:55.967Z,5.22
2023-07-08T07:53:58.648Z,6.20
2023-07-08T07:59:02.652Z,3.70
2023-07-08T08:04:05.935Z,5.25
2023-07-08T08:09:09.160Z,7.25
2023-07-08T08:14:13.407Z,4.28
2023-07-08T08:19:16.291Z,5.20
2023-07-08T08:24:19.030Z,5.10
2023-07-08T08:29:23.150Z,5.53
2023-07-08T08:34:25.840Z,5.03
2023-07-08T08:39:30.340Z,4.57
2023-07-08T08:44:37.446Z,5.95
2023-07-08T08:49:45.094Z,4.13
2023-07-08T08:54:49.706Z,5.03
2023-07-08T08:59:58.770Z,4.82
2023-07-08T09:05:07.608Z,6.13
2023-07-08T09:10:18.389Z,6.03
2023-07-08T09:15:24.244Z,6.93
2023-07-08T09:20:30.277Z,3.78
2023-07-08T09:25:36.754Z,4.80
2023-07-08T09:30:41.951Z,4.40
2023-07-08T09:35:48.274Z,6.13
2023-07-08T09:40:58.085Z,4.18
2023-07-08T09:46:06.325Z,5.95
2023-07-08T09:51:11.112Z,8.40
2023-07-08T09:56:16.782Z,4.50
2023-07-08T10:01:27.946Z,4.75
2023-07-08T10:06:38.085Z,4.68
2023-07-08T10:11:48.304Z,4.93
2023-07-08T10:16:58.198Z,5.45
2023-07-08T10:22:16.985Z,3.28
2023-07-08T10:27:31.246Z,3.70
2023-07-08T10:32:46.112Z,3.05
2023-07-08T10:38:03.781Z,4.38
2023-07-08T10:43:25.649Z,5.43
2023-07-08T10:48:54.110Z,2.45
2023-07-08T10:54:11.541Z,2.50
2023-07-08T10:59:33.590Z,2.65
2023-07-08T11:04:55.022Z,4.88
2023-07-08T11:10:07.660Z,4.32
2023-07-08T11:15:21.050Z,4.53
2023-07-08T11:20:36.193Z,6.28
2023-07-08T11:25:41.266Z,3.53
2023-07-08T11:30:48.581Z,4.95
2023-07-08T11:35:57.375Z,3.33
2023-07-08T11:41:05.254Z,5.47
2023-07-08T11:46:10.482Z,7.05
2023-07-08T11:51:22.355Z,5.05
2023-07-08T11:56:28.697Z,3.90
2023-07-08T12:01:40.425Z,3.47
2023-07-08T12:06:51.710Z,3.33
2023-07-08T12:12:02.973Z,3.63
2023-07-08T12:17:13.113Z,4.10
2023-07-08T12:22:20.081Z,3.83
2023-07-08T12:27:25.365Z,5.03
2023-07-08T12:32:29.920Z,4.75
2023-07-08T12:37:40.797Z,3.88
2023-07-08T12:42:43.512Z,3.83
2023-07-08T12:47:47.181Z,4.78
2023-07-08T12:52:51.420Z,5.50
2023-07-08T12:57:54.531Z,5.07
2023-07-08T13:03:00.894Z,2.75
2023-07-08T13:08:06.331Z,3.28
2023-07-08T13:13:14.202Z,3.58
2023-07-08T13:18:18.774Z,4.10
2023-07-08T13:23:24.054Z,4.00
2023-07-08T13:28:29.179Z,3.83
2023-07-08T13:33:34.467Z,3.20
2023-07-08T13:38:40.909Z,2.88
2023-07-08T13:43:43.720Z,4.07
2023-07-08T13:48:46.576Z,2.58
2023-07-08T13:53:59.317Z,3.15
2023-07-08T13:59:09.549Z,3.30
2023-07-08T14:04:14.957Z,5.20
2023-07-08T14:09:25.499Z,4.20
2023-07-08T14:14:31.677Z,3.28
2023-07-08T14:19:39.865Z,5.20
2023-07-08T14:24:50.509Z,7.43
2023-07-08T14:29:56.144Z,3.78
2023-07-08T14:35:17.090Z,5.10
2023-07-08T14:40:33.708Z,3.28
2023-07-08T14:45:43.168Z,6.22
2023-07-08T14:50:46.475Z,2.85
2023-07-08T14:55:55.760Z,2.72
2023-07-08T15:01:01.728Z,3.22
2023-07-08T15:06:05.763Z,3.17
2023-07-08T15:11:14.025Z,3.20
2023-07-08T15:16:21.590Z,4.75
2023-07-08T15:21:26.944Z,4.57
2023-07-08T15:26:31.313Z,3.80
2023-07-08T15:31:35.811Z,3.92
2023-07-08T15:36:38.518Z,4.88
2023-07-08T15:41:43.262Z,2.70
2023-07-08T15:46:48.565Z,3.00
2023-07-08T15:51:57.222Z,5.15
2023-07-08T15:57:01.453Z,5.15
2023-07-08T16:02:16.847Z,4.85
2023-07-08T16:07:19.638Z,3.47
2023-07-08T16:12:41.664Z,5.40
2023-07-08T16:17:44.948Z,3.28
2023-07-08T16:22:48.076Z,3.95
2023-07-08T16:27:54.200Z,5.93
2023-07-08T16:32:57.148Z,4.53
2023-07-08T16:37:59.911Z,4.68
2023-07-08T16:43:04.144Z,4.00
2023-07-08T16:48:06.905Z,5.30
2023-07-08T16:53:11.826Z,7.57
2023-07-08T16:58:15.916Z,6.35
2023-07-08T17:03:19.590Z,4.78
2023-07-08T17:08:23.110Z,3.75
2023-07-08T17:13:28.919Z,5.65
2023-07-08T17:18:32.064Z,5.25
2023-07-08T17:23:36.736Z,4.47
2023-07-08T17:28:40.864Z,5.03
2023-07-08T17:33:44.099Z,5.43
2023-07-08T17:38:48.664Z,6.28
2023-07-08T17:43:52.732Z,5.82
2023-07-08T18:36:48.114Z,3.92
2023-07-08T18:42:06.434Z,3.58
2023-07-08T18:47:17.331Z,5.43
2023-07-08T18:58:23.277Z,5.88
2023-07-08T19:03:35.381Z,11.18
2023-07-08T19:08:47.238Z,6.55
2023-07-08T19:13:52.999Z,16.05
2023-07-08T19:19:00.192Z,8.32
2023-07-08T19:24:04.369Z,11.07
2023-07-08T19:29:07.074Z,11.82
2023-07-08T19:34:14.731Z,14.73
2023-07-08T19:39:18.888Z,13.75
2023-07-08T19:44:26.455Z,17.55
2023-07-08T19:49:29.212Z,17.10
2023-07-08T19:54:33.254Z,19.70
2023-07-08T19:59:36.040Z,16.58
2023-07-08T20:04:38.768Z,13.77
2023-07-08T20:09:42.805Z,17.73
2023-07-08T20:14:45.616Z,12.27
2023-07-08T20:19:48.552Z,14.45
2023-07-08T20:24:52.620Z,8.23
2023-07-08T20:29:55.940Z,7.80
2023-07-08T20:34:58.721Z,5.40
2023-07-08T20:40:03.348Z,7.95
2023-07-08T20:45:07.279Z,8.05
2023-07-08T20:50:21.753Z,11.82
2023-07-08T20:55:29.919Z,8.57
2023-07-08T21:00:36.611Z,9.05
2023-07-08T21:05:42.139Z,6.68
2023-07-08T21:10:50.721Z,9.63
2023-07-08T21:15:59.511Z,8.38
2023-07-08T21:21:04.641Z,7.65
2023-07-08T21:26:23.260Z,9.45
2023-07-08T21:31:30.176Z,8.02
2023-07-08T21:36:35.735Z,6.43
2023-07-08T21:41:40.121Z,8.75
2023-07-08T21:46:43.041Z,12.23
2023-07-08T21:51:46.866Z,12.63
2023-07-08T21:56:50.862Z,10.30
2023-07-08T22:01:53.806Z,10.32
2023-07-08T22:06:59.121Z,10.30
2023-07-08T22:12:03.284Z,9.48
2023-07-08T22:17:11.308Z,7.82
2023-07-08T22:22:14.388Z,11.13
2023-07-08T22:27:18.415Z,8.45
2023-07-08T22:32:21.192Z,6.82
2023-07-08T22:37:23.946Z,11.23
2023-07-08T22:42:27.981Z,8.27
2023-07-08T22:47:31.122Z,10.38
2023-07-08T22:52:37.157Z,7.05
2023-07-08T22:57:41.310Z,8.40
2023-07-08T23:02:44.351Z,10.13
2023-07-08T23:07:47.185Z,7.47
2023-07-08T23:12:51.206Z,9.00
2023-07-08T23:17:53.981Z,10.43
2023-07-08T23:22:56.832Z,10.98
2023-07-08T23:28:03.004Z,10.48
2023-07-08T23:33:07.636Z,8.75
2023-07-08T23:38:19.487Z,7.32
2023-07-08T23:43:24.630Z,8.18
2023-07-08T23:48:28.317Z,7.72
2023-07-08T23:53:31.945Z,11.73
2023-07-08T23:58:37.117Z,7.75
